createdAt,value
2022-12-18T00:02:05.083Z,93911.16
2022-12-18T00:05:08.411Z,93915.13
2022-12-18T00:08:11.985Z,93909.22
2022-12-18T00:11:18.591Z,93905.31
2022-12-18T00:14:21.591Z,93907.97
2022-12-18T00:17:24.950Z,93910.66
2022-12-18T00:20:27.836Z,93916.84
2022-12-18T00:23:31.736Z,93918.34
2022-12-18T00:26:36.513Z,93915.06
2022-12-18T00:29:42.927Z,93916.19
2022-12-18T00:32:46.056Z,93909.47
2022-12-18T00:35:49.552Z,93908.22
2022-12-18T00:38:52.656Z,93906.66
2022-12-18T00:42:14.050Z,93908.72
2022-12-18T00:45:17.795Z,93907.94
2022-12-18T00:48:20.828Z,93906.75
2022-12-18T00:51:25.606Z,93909.22
2022-12-18T00:54:29.007Z,93914.06
2022-12-18T00:57:33.151Z,93916.84
2022-12-18T01:00:38.267Z,93917.97
2022-12-18T01:03:42.106Z,93914.72
2022-12-18T01:06:46.139Z,93910.56
2022-12-18T01:09:49.029Z,93911.25
2022-12-18T01:12:53.068Z,93909.03
2022-12-18T01:15:56.622Z,93915.16
2022-12-18T01:18:59.465Z,93914.22
2022-12-18T01:22:03.972Z,93919.50
2022-12-18T01:25:07.354Z,93918.25
2022-12-18T01:28:11.344Z,93925.31
2022-12-18T01:31:40.592Z,93923.28
2022-12-18T01:34:43.595Z,93926.47
2022-12-18T01:37:46.623Z,93928.31
2022-12-18T01:40:49.786Z,93928.44
2022-12-18T01:43:58.873Z,93928.78
2022-12-18T01:47:02.952Z,93925.63
2022-12-18T01:50:14.778Z,93926.59
2022-12-18T01:53:25.826Z,93928.09
2022-12-18T01:56:28.898Z,93931.16
2022-12-18T01:59:34.407Z,93930.81
2022-12-18T02:02:38.225Z,93935.88
2022-12-18T02:06:03.051Z,93934.72
2022-12-18T02:09:16.895Z,93928.69
2022-12-18T02:12:23.520Z,93937.13
2022-12-18T02:15:40.597Z,93937.91
2022-12-18T02:18:49.841Z,93939.19
2022-12-18T02:22:15.479Z,93934.41
2022-12-18T02:25:43.799Z,93948.19
2022-12-18T02:29:01.110Z,93952.53
2022-12-18T02:32:11.067Z,93944.16
2022-12-18T02:35:24.121Z,93946.22
2022-12-18T02:38:32.936Z,93944.97
2022-12-18T02:41:43.502Z,93944.91
2022-12-18T02:44:49.473Z,93936.00
2022-12-18T02:47:56.071Z,93933.59
2022-12-18T02:51:12.711Z,93930.34
2022-12-18T02:54:34.462Z,93930.97
2022-12-18T02:57:59.877Z,93926.47
2022-12-18T03:01:22.108Z,93924.47
2022-12-18T03:04:25.078Z,93927.25
2022-12-18T03:07:48.377Z,93923.56
2022-12-18T03:11:11.547Z,93916.88
2022-12-18T03:14:18.751Z,93912.25
2022-12-18T03:17:28.381Z,93909.28
2022-12-18T03:20:34.481Z,93921.16
2022-12-18T03:23:49.007Z,93913.97
2022-12-18T03:26:56.780Z,93907.06
2022-12-18T03:30:11.817Z,93913.03
2022-12-18T03:33:47.555Z,93909.03
2022-12-18T03:36:51.238Z,93905.06
2022-12-18T03:39:55.447Z,93903.31
2022-12-18T03:43:32.006Z,93894.63
2022-12-18T03:46:42.667Z,93892.66
2022-12-18T03:49:58.114Z,93894.84
2022-12-18T03:53:16.811Z,93893.09
2022-12-18T03:56:25.679Z,93894.97
2022-12-18T03:59:31.477Z,93890.22
2022-12-18T04:02:36.719Z,93885.28
2022-12-18T04:05:42.316Z,93879.09
2022-12-18T04:08:46.776Z,93879.28
2022-12-18T04:11:54.059Z,93882.91
2022-12-18T04:14:58.047Z,93874.50
2022-12-18T04:18:01.325Z,93880.09
2022-12-18T04:21:12.791Z,93878.22
2022-12-18T04:24:16.912Z,93879.47
2022-12-18T04:27:29.062Z,93878.00
2022-12-18T04:30:36.002Z,93875.53
2022-12-18T04:33:40.243Z,93875.50
2022-12-18T04:36:44.404Z,93867.03
2022-12-18T04:39:49.746Z,93864.22
2022-12-18T04:43:00.831Z,93862.41
2022-12-18T04:46:08.506Z,93856.47
2022-12-18T04:49:15.402Z,93852.38
2022-12-18T04:52:18.377Z,93848.38
2022-12-18T04:55:21.600Z,93841.38
2022-12-18T04:58:25.468Z,93844.00
2022-12-18T05:01:34.288Z,93843.81
2022-12-18T05:04:39.495Z,93839.88
2022-12-18T05:07:43.011Z,93832.03
2022-12-18T05:10:46.313Z,93834.91
2022-12-18T05:13:49.586Z,93837.25
2022-12-18T05:16:55.729Z,93829.31
2022-12-18T05:20:01.621Z,93832.38
2022-12-18T05:23:04.525Z,93829.44
2022-12-18T05:26:09.600Z,93828.91
2022-12-18T05:29:14.076Z,93819.75
2022-12-18T05:32:18.242Z,93821.97
2022-12-18T05:35:22.152Z,93816.75
2022-12-18T05:38:28.114Z,93819.81
2022-12-18T05:41:31.766Z,93822.66
2022-12-18T05:44:35.899Z,93822.69
2022-12-18T05:47:38.781Z,93821.81
2022-12-18T05:50:44.139Z,93820.63
2022-12-18T05:53:48.409Z,93826.78
2022-12-18T05:56:51.404Z,93822.22
2022-12-18T05:59:55.273Z,93822.97
2022-12-18T06:02:59.321Z,93821.03
2022-12-18T06:06:03.498Z,93816.66
2022-12-18T06:09:11.464Z,93824.09
2022-12-18T06:12:14.416Z,93828.19
2022-12-18T06:15:17.706Z,93823.06
2022-12-18T06:18:20.562Z,93821.22
2022-12-18T06:21:23.904Z,93833.25
2022-12-18T06:24:26.874Z,93819.53
2022-12-18T06:27:29.837Z,93819.44
2022-12-18T06:30:33.189Z,93818.72
2022-12-18T06:33:37.409Z,93814.50
2022-12-18T06:36:41.304Z,93820.59
2022-12-18T06:39:44.634Z,93832.69
2022-12-18T06:42:48.316Z,93828.47
2022-12-18T06:45:54.514Z,93826.97
2022-12-18T06:48:58.139Z,93824.56
2022-12-18T06:52:02.215Z,93820.97
2022-12-18T06:55:06.550Z,93829.81
2022-12-18T06:58:11.754Z,93817.69
2022-12-18T07:01:16.473Z,93826.59
2022-12-18T07:04:20.589Z,93819.59
2022-12-18T07:07:24.383Z,93821.38
2022-12-18T07:10:28.489Z,93821.84
2022-12-18T07:13:31.443Z,93832.63
2022-12-18T07:16:34.666Z,93835.91
2022-12-18T07:19:38.483Z,93828.75
2022-12-18T07:22:42.689Z,93827.78
2022-12-18T07:25:46.352Z,93839.66
2022-12-18T07:28:50.343Z,93838.38
2022-12-18T07:31:53.935Z,93839.06
2022-12-18T07:34:57.067Z,93844.31
2022-12-18T07:38:00.711Z,93845.81
2022-12-18T07:41:12.529Z,93840.41
2022-12-18T07:44:16.562Z,93837.97
2022-12-18T07:47:19.522Z,93845.44
2022-12-18T07:50:22.940Z,93844.72
2022-12-18T07:53:26.571Z,93849.19
2022-12-18T07:56:31.286Z,93847.03
2022-12-18T07:59:35.285Z,93861.38
2022-12-18T08:02:39.416Z,93855.69
2022-12-18T08:05:42.616Z,93855.97
2022-12-18T08:08:46.139Z,93851.00
2022-12-18T08:11:50.149Z,93859.19
2022-12-18T08:14:53.898Z,93866.69
2022-12-18T08:18:00.774Z,93864.44
2022-12-18T08:21:11.911Z,93868.66
2022-12-18T08:24:15.992Z,93872.41
2022-12-18T08:27:34.913Z,93870.94
2022-12-18T08:30:38.181Z,93879.38
2022-12-18T08:33:43.130Z,93871.41
2022-12-18T08:36:46.592Z,93876.38
2022-12-18T08:39:50.208Z,93878.13
2022-12-18T08:43:11.692Z,93884.78
2022-12-18T08:46:15.585Z,93890.72
2022-12-18T08:49:18.558Z,93886.50
2022-12-18T08:52:21.933Z,93892.66
2022-12-18T08:55:26.489Z,93891.44
2022-12-18T08:58:29.348Z,93895.81
2022-12-18T09:01:32.615Z,93897.03
2022-12-18T09:04:37.058Z,93894.78
2022-12-18T09:07:40.840Z,93889.66
2022-12-18T09:10:45.168Z,93907.97
2022-12-18T09:13:48.312Z,93901.56
2022-12-18T09:16:51.300Z,93897.00
2022-12-18T09:19:54.668Z,93903.47
2022-12-18T09:22:57.908Z,93896.59
2022-12-18T09:26:02.132Z,93904.94
2022-12-18T09:29:05.637Z,93894.28
2022-12-18T09:32:09.179Z,93900.81
2022-12-18T09:35:12.881Z,93900.47
2022-12-18T09:38:20.279Z,93897.22
2022-12-18T09:41:49.311Z,93898.16
2022-12-18T09:44:55.906Z,93908.50
2022-12-18T09:48:00.228Z,93908.50
2022-12-18T09:51:31.564Z,93910.47
2022-12-18T09:54:41.566Z,93902.50
2022-12-18T09:57:55.198Z,93910.34
2022-12-18T10:00:58.769Z,93904.78
2022-12-18T10:04:02.039Z,93907.50
2022-12-18T10:07:41.086Z,93901.56
2022-12-18T10:10:55.545Z,93906.91
2022-12-18T10:14:09.267Z,93908.41
2022-12-18T10:17:15.999Z,93919.41
2022-12-18T10:20:23.595Z,93909.00
2022-12-18T10:23:49.008Z,93920.97
2022-12-18T10:26:53.864Z,93911.56
2022-12-18T10:29:56.738Z,93914.81
2022-12-18T10:33:03.740Z,93918.16
2022-12-18T10:36:08.217Z,93915.16
2022-12-18T10:39:24.013Z,93920.81
2022-12-18T10:42:27.254Z,93919.56
2022-12-18T10:45:30.274Z,93915.81
2022-12-18T10:48:34.891Z,93915.47
2022-12-18T10:51:39.598Z,93917.34
2022-12-18T10:54:50.552Z,93925.41
2022-12-18T10:57:53.643Z,93917.97
2022-12-18T11:01:15.595Z,93911.09
2022-12-18T11:04:25.097Z,93912.28
2022-12-18T11:07:50.639Z,93911.09
2022-12-18T11:10:54.250Z,93918.53
2022-12-18T11:14:08.145Z,93908.47
2022-12-18T11:17:26.292Z,93915.78
2022-12-18T11:20:36.886Z,93910.38
2022-12-18T11:23:53.067Z,93909.53
2022-12-18T11:26:59.845Z,93920.88
2022-12-18T11:30:39.402Z,93913.66
2022-12-18T11:34:11.874Z,93914.50
2022-12-18T11:37:15.179Z,93914.06
2022-12-18T11:40:24.565Z,93905.44
2022-12-18T11:43:47.461Z,93914.81
2022-12-18T11:47:01.598Z,93912.03
2022-12-18T11:50:15.395Z,93918.63
2022-12-18T11:53:20.259Z,93926.78
2022-12-18T11:56:45.829Z,93926.16
2022-12-18T12:00:05.622Z,93915.22
2022-12-18T12:03:23.741Z,93921.88
2022-12-18T12:06:40.628Z,93916.69
2022-12-18T12:09:55.999Z,93910.03
2022-12-18T12:13:12.040Z,93913.16
2022-12-18T12:16:19.443Z,93911.56
2022-12-18T12:19:38.473Z,93907.94
2022-12-18T12:23:05.059Z,93901.69
2022-12-18T12:26:42.934Z,93901.41
2022-12-18T12:30:05.587Z,93906.63
2022-12-18T12:33:22.028Z,93909.97
2022-12-18T12:36:25.455Z,93905.03
2022-12-18T12:39:41.551Z,93903.19
2022-12-18T12:43:14.656Z,93894.97
2022-12-18T12:46:22.243Z,93899.69
2022-12-18T12:49:31.210Z,93893.72
2022-12-18T12:52:45.898Z,93897.09
2022-12-18T12:55:49.676Z,93892.91
2022-12-18T12:59:11.594Z,93903.94
2022-12-18T13:02:31.007Z,93893.81
2022-12-18T13:05:45.022Z,93898.38
2022-12-18T13:09:01.574Z,93894.41
2022-12-18T13:12:30.246Z,93888.88
2022-12-18T13:15:41.290Z,93890.59
2022-12-18T13:18:56.107Z,93882.25
2022-12-18T13:21:59.826Z,93880.97
2022-12-18T13:25:07.229Z,93875.31
2022-12-18T13:28:14.707Z,93873.91
2022-12-18T13:31:43.560Z,93863.09
2022-12-18T13:34:47.331Z,93869.59
2022-12-18T13:37:54.892Z,93860.16
2022-12-18T13:40:58.962Z,93867.44
2022-12-18T13:48:00.334Z,93867.00
2022-12-18T13:51:08.239Z,93858.69
2022-12-18T13:54:42.963Z,93861.88
2022-12-18T13:57:46.885Z,93857.28
2022-12-18T14:00:51.194Z,93861.47
2022-12-18T14:04:21.338Z,93853.31
2022-12-18T14:07:26.988Z,93855.56
2022-12-18T14:10:48.719Z,93843.94
2022-12-18T14:13:54.457Z,93846.22
2022-12-18T14:16:58.395Z,93848.59
2022-12-18T14:20:02.881Z,93848.88
2022-12-18T14:23:06.519Z,93849.34
2022-12-18T14:26:30.824Z,93839.63
2022-12-18T14:29:37.139Z,93846.16
2022-12-18T14:32:39.999Z,93854.03
2022-12-18T14:35:54.241Z,93845.03
2022-12-18T14:38:59.489Z,93850.88
2022-12-18T14:42:03.162Z,93843.88
2022-12-18T14:45:42.208Z,93841.72
2022-12-18T14:48:49.946Z,93852.97
2022-12-18T14:52:07.724Z,93843.19
2022-12-18T14:55:23.058Z,93853.91
2022-12-18T14:58:26.660Z,93862.19
2022-12-18T15:01:46.182Z,93846.41
2022-12-18T15:05:01.424Z,93858.38
2022-12-18T15:08:05.430Z,93850.34
2022-12-18T15:11:29.741Z,93852.34
2022-12-18T15:14:36.653Z,93848.22
2022-12-18T15:17:40.429Z,93837.09
2022-12-18T15:20:43.517Z,93844.31
2022-12-18T15:23:51.907Z,93839.56
2022-12-18T15:26:55.360Z,93834.63
2022-12-18T15:30:03.187Z,93831.78
2022-12-18T15:33:27.120Z,93826.94
2022-12-18T15:36:31.896Z,93826.56
2022-12-18T15:39:36.834Z,93826.69
2022-12-18T15:42:58.308Z,93816.56
2022-12-18T15:46:15.266Z,93822.16
2022-12-18T15:49:18.658Z,93819.94
2022-12-18T15:52:27.411Z,93816.72
2022-12-18T15:55:50.127Z,93818.19
2022-12-18T15:58:54.196Z,93817.16
2022-12-18T16:01:58.037Z,93815.41
2022-12-18T16:05:01.804Z,93813.44
2022-12-18T16:08:05.720Z,93805.78
2022-12-18T16:11:39.487Z,93809.66
2022-12-18T16:14:43.589Z,93801.72
2022-12-18T16:17:48.943Z,93805.25
2022-12-18T16:20:52.672Z,93800.91
2022-12-18T16:23:55.944Z,93803.13
2022-12-18T16:27:01.615Z,93797.50
2022-12-18T16:30:05.592Z,93797.06
2022-12-18T16:33:12.002Z,93798.53
2022-12-18T16:36:16.298Z,93794.00
2022-12-18T16:39:20.030Z,93793.91
2022-12-18T16:42:22.991Z,93804.47
2022-12-18T16:45:26.813Z,93796.53
2022-12-18T16:48:29.896Z,93801.13
2022-12-18T16:51:34.335Z,93793.09
2022-12-18T16:54:38.548Z,93800.38
2022-12-18T16:57:42.090Z,93793.34
2022-12-18T17:00:45.596Z,93797.22
2022-12-18T17:04:03.318Z,93801.78
2022-12-18T17:07:09.256Z,93797.44
2022-12-18T17:10:13.025Z,93793.25
2022-12-18T17:13:25.616Z,93797.72
2022-12-18T17:16:29.759Z,93791.84
2022-12-18T17:19:33.475Z,93795.91
2022-12-18T17:22:40.792Z,93794.31
2022-12-18T17:25:45.053Z,93794.25
2022-12-18T17:28:48.952Z,93786.88
2022-12-18T17:31:52.145Z,93789.94
2022-12-18T17:34:56.611Z,93791.00
2022-12-18T17:38:00.135Z,93783.66
2022-12-18T17:41:08.862Z,93781.84
2022-12-18T17:44:12.675Z,93786.88
2022-12-18T17:47:17.280Z,93791.44
2022-12-18T17:50:21.428Z,93786.22
2022-12-18T17:53:25.299Z,93794.97
2022-12-18T17:56:29.159Z,93784.06
2022-12-18T17:59:32.835Z,93784.19
2022-12-18T18:02:36.225Z,93790.78
2022-12-18T18:05:39.624Z,93784.84
2022-12-18T18:08:44.147Z,93785.50
2022-12-18T18:12:05.607Z,93786.50
2022-12-18T18:15:10.278Z,93789.09
2022-12-18T18:18:15.010Z,93794.09
2022-12-18T18:21:21.262Z,93793.88
2022-12-18T18:24:26.389Z,93792.94
2022-12-18T18:27:36.880Z,93791.72
2022-12-18T18:30:42.858Z,93788.13
2022-12-18T18:33:47.013Z,93789.22
2022-12-18T18:36:52.980Z,93784.38
2022-12-18T18:39:57.524Z,93795.06
2022-12-18T18:43:02.689Z,93791.88
2022-12-18T18:46:13.525Z,93784.59
2022-12-18T18:49:18.010Z,93781.53
2022-12-18T18:52:22.194Z,93780.78
2022-12-18T18:55:26.010Z,93778.88
2022-12-18T18:58:32.873Z,93776.72
2022-12-18T19:01:37.071Z,93771.41
2022-12-18T19:04:46.021Z,93769.72
2022-12-18T19:07:51.097Z,93763.19
2022-12-18T19:10:57.914Z,93760.31
2022-12-18T19:14:04.088Z,93765.97
2022-12-18T19:17:08.996Z,93770.13
2022-12-18T19:20:14.545Z,93753.13
2022-12-18T19:23:18.049Z,93755.25
2022-12-18T19:26:30.187Z,93759.84
2022-12-18T19:29:33.462Z,93760.03
2022-12-18T19:32:36.747Z,93772.44
2022-12-18T19:35:43.258Z,93764.31
2022-12-18T19:38:48.731Z,93760.59
2022-12-18T19:41:53.226Z,93753.75
2022-12-18T19:44:58.876Z,93746.31
2022-12-18T19:48:04.600Z,93746.31
2022-12-18T19:51:15.020Z,93746.97
2022-12-18T19:54:19.463Z,93754.84
2022-12-18T19:57:23.613Z,93758.13
2022-12-18T20:00:27.935Z,93751.72
2022-12-18T20:03:42.880Z,93752.41
2022-12-18T20:06:51.970Z,93749.59
2022-12-18T20:10:02.561Z,93751.31
2022-12-18T20:13:11.225Z,93752.81
2022-12-18T20:16:15.573Z,93754.41
2022-12-18T20:19:20.009Z,93751.44
2022-12-18T20:22:25.090Z,93746.97
2022-12-18T20:25:29.458Z,93749.94
2022-12-18T20:28:34.489Z,93761.00
2022-12-18T20:31:41.518Z,93752.38
2022-12-18T20:34:46.221Z,93753.97
2022-12-18T20:37:51.885Z,93750.94
2022-12-18T20:40:58.077Z,93749.84
2022-12-18T20:44:02.846Z,93748.06
2022-12-18T20:47:08.857Z,93753.78
2022-12-18T20:50:12.384Z,93754.31
2022-12-18T20:53:17.007Z,93753.16
2022-12-18T20:56:23.013Z,93754.34
2022-12-18T20:59:27.361Z,93747.19
2022-12-18T21:02:31.426Z,93752.56
2022-12-18T21:05:35.717Z,93750.41
2022-12-18T21:08:40.162Z,93742.94
2022-12-18T21:12:02.440Z,93747.09
2022-12-18T21:15:08.656Z,93747.97
2022-12-18T21:18:11.651Z,93730.81
2022-12-18T21:21:15.620Z,93737.94
2022-12-18T21:24:19.988Z,93750.59
2022-12-18T21:27:23.420Z,93746.25
2022-12-18T21:30:26.320Z,93738.34
2022-12-18T21:33:30.262Z,93736.75
2022-12-18T21:36:34.356Z,93736.56
2022-12-18T21:39:37.621Z,93734.94
2022-12-18T21:42:59.838Z,93730.91
2022-12-18T21:46:02.833Z,93734.59
2022-12-18T21:49:07.646Z,93740.72
2022-12-18T21:52:10.796Z,93744.00
2022-12-18T21:55:13.789Z,93744.38
2022-12-18T21:58:16.624Z,93745.97
2022-12-18T22:01:19.601Z,93738.69
2022-12-18T22:04:23.571Z,93733.91
2022-12-18T22:07:27.143Z,93727.53
2022-12-18T22:10:30.438Z,93733.94
2022-12-18T22:13:34.042Z,93731.69
2022-12-18T22:16:36.941Z,93727.00
2022-12-18T22:19:43.174Z,93729.44
2022-12-18T22:22:46.928Z,93723.25
2022-12-18T22:25:49.846Z,93724.00
2022-12-18T22:29:11.280Z,93720.63
2022-12-18T22:32:25.586Z,93720.53
2022-12-18T22:35:34.544Z,93720.34
2022-12-18T22:38:37.835Z,93726.81
2022-12-18T22:41:40.800Z,93729.59
2022-12-18T22:44:44.542Z,93728.94
2022-12-18T22:47:48.129Z,93732.28
2022-12-18T22:50:55.980Z,93735.97
2022-12-18T22:54:03.322Z,93733.03
2022-12-18T22:57:07.229Z,93722.59
2022-12-18T23:00:11.699Z,93722.06
2022-12-18T23:03:15.825Z,93719.88
2022-12-18T23:06:20.894Z,93715.94
2022-12-18T23:09:25.040Z,93723.81
2022-12-18T23:12:27.991Z,93723.63
2022-12-18T23:15:31.316Z,93719.31
2022-12-18T23:18:36.229Z,93733.16
2022-12-18T23:21:40.251Z,93720.19
2022-12-18T23:24:44.405Z,93713.06
2022-12-18T23:27:47.995Z,93720.38
2022-12-18T23:30:50.923Z,93722.00
2022-12-18T23:33:55.864Z,93717.97
2022-12-18T23:36:58.913Z,93729.25
2022-12-18T23:40:01.812Z,93725.91
2022-12-18T23:43:05.431Z,93728.09
2022-12-18T23:46:18.768Z,93738.19
2022-12-18T23:49:22.372Z,93732.97
2022-12-18T23:52:26.215Z,93744.41
2022-12-18T23:55:29.958Z,93757.22
2022-12-18T23:58:35.141Z,93750.94
